sensor_id;sensor_type;location;lat;lon;timestamp;P1;durP1;ratioP1;P2;durP2;ratioP2
76548;SDS011;65391;52.068;4.542;2023-12-28T00:01:07;9.6;;;1.8;;
76548;SDS011;65391;52.068;4.542;2023-12-28T00:03:32;9.6;;;1.8;;
76548;SDS011;65391;52.068;4.542;2023-12-28T00:05:57;9.4;;;2.3;;
76548;SDS011;65391;52.068;4.542;2023-12-28T00:08:22;9.4;;;2.3;;
76548;SDS011;65391;52.068;4.542;2023-12-28T00:10:47;9.4;;;2.3;;
76548;SDS011;65391;52.068;4.542;2023-12-28T00:13:12;9.4;;;2.3;;
76548;SDS011;65391;52.068;4.542;2023-12-28T00:15:37;10.8;;;2.5;;
76548;SDS011;65391;52.068;4.542;2023-12-28T00:18:02;10.8;;;2.5;;
76548;SDS011;65391;52.068;4.542;2023-12-28T00:20:27;10.8;;;2.5;;
76548;SDS011;65391;52.068;4.542;2023-12-28T00:22:52;10.8;;;2.5;;
76548;SDS011;65391;52.068;4.542;2023-12-28T00:25:17;6.1;;;2;;
76548;SDS011;65391;52.068;4.542;2023-12-28T00:27:42;6.1;;;2;;
76548;SDS011;65391;52.068;4.542;2023-12-28T00:30:07;6.1;;;2;;
76548;SDS011;65391;52.068;4.542;2023-12-28T00:32:32;6.1;;;2;;
76548;SDS011;65391;52.068;4.542;2023-12-28T00:34:57;9.5;;;2.5;;
76548;SDS011;65391;52.068;4.542;2023-12-28T00:37:22;9.5;;;2.5;;
76548;SDS011;65391;52.068;4.542;2023-12-28T00:39:47;9.5;;;2.5;;
76548;SDS011;65391;52.068;4.542;2023-12-28T00:42:12;9.5;;;2.5;;
76548;SDS011;65391;52.068;4.542;2023-12-28T00:44:37;9.5;;;2.5;;
76548;SDS011;65391;52.068;4.542;2023-12-28T00:47:02;7.7;;;1.7;;
76548;SDS011;65391;52.068;4.542;2023-12-28T00:49:27;7.7;;;1.7;;
76548;SDS011;65391;52.068;4.542;2023-12-28T00:51:52;7.7;;;1.7;;
76548;SDS011;65391;52.068;4.542;2023-12-28T00:54:18;7.7;;;1.7;;
76548;SDS011;65391;52.068;4.542;2023-12-28T00:56:42;7;;;1.9;;
76548;SDS011;65391;52.068;4.542;2023-12-28T00:59:07;7;;;1.9;;
76548;SDS011;65391;52.068;4.542;2023-12-28T01:01:32;7;;;1.9;;
76548;SDS011;65391;52.068;4.542;2023-12-28T01:03:57;7;;;1.9;;
76548;SDS011;65391;52.068;4.542;2023-12-28T01:06:22;10.1;;;1.7;;
76548;SDS011;65391;52.068;4.542;2023-12-28T01:08:48;10.1;;;1.7;;
76548;SDS011;65391;52.068;4.542;2023-12-28T01:11:12;10.1;;;1.7;;
76548;SDS011;65391;52.068;4.542;2023-12-28T01:13:37;10.1;;;1.7;;
76548;SDS011;65391;52.068;4.542;2023-12-28T01:16:02;7.2;;;1.6;;
76548;SDS011;65391;52.068;4.542;2023-12-28T01:18:27;7.2;;;1.6;;
76548;SDS011;65391;52.068;4.542;2023-12-28T01:20:52;7.2;;;1.6;;
76548;SDS011;65391;52.068;4.542;2023-12-28T01:23:17;7.2;;;1.6;;
76548;SDS011;65391;52.068;4.542;2023-12-28T01:25:42;5.5;;;1.5;;
76548;SDS011;65391;52.068;4.542;2023-12-28T01:28:07;5.5;;;1.5;;
76548;SDS011;65391;52.068;4.542;2023-12-28T01:30:32;5.5;;;1.5;;
76548;SDS011;65391;52.068;4.542;2023-12-28T01:32:57;5.5;;;1.5;;
76548;SDS011;65391;52.068;4.542;2023-12-28T01:35:22;6.5;;;1.8;;
76548;SDS011;65391;52.068;4.542;2023-12-28T01:37:47;6.5;;;1.8;;
76548;SDS011;65391;52.068;4.542;2023-12-28T01:40:12;6.5;;;1.8;;
76548;SDS011;65391;52.068;4.542;2023-12-28T01:42:37;6.5;;;1.8;;
76548;SDS011;65391;52.068;4.542;2023-12-28T01:45:03;5.6;;;1.7;;
76548;SDS011;65391;52.068;4.542;2023-12-28T01:47:27;5.6;;;1.7;;
76548;SDS011;65391;52.068;4.542;2023-12-28T01:49:52;5.6;;;1.7;;
76548;SDS011;65391;52.068;4.542;2023-12-28T01:52:17;5.6;;;1.7;;
76548;SDS011;65391;52.068;4.542;2023-12-28T01:54:42;5.6;;;1.7;;
76548;SDS011;65391;52.068;4.542;2023-12-28T01:57:07;6;;;1.9;;
76548;SDS011;65391;52.068;4.542;2023-12-28T01:59:32;6;;;1.9;;
76548;SDS011;65391;52.068;4.542;2023-12-28T02:01:57;6;;;1.9;;
76548;SDS011;65391;52.068;4.542;2023-12-28T02:04:22;6;;;1.9;;
76548;SDS011;65391;52.068;4.542;2023-12-28T02:06:47;10.6;;;1.8;;
76548;SDS011;65391;52.068;4.542;2023-12-28T02:09:12;10.6;;;1.8;;
76548;SDS011;65391;52.068;4.542;2023-12-28T02:11:37;10.6;;;1.8;;
76548;SDS011;65391;52.068;4.542;2023-12-28T02:14:02;10.6;;;1.8;;
76548;SDS011;65391;52.068;4.542;2023-12-28T02:16:29;10.4;;;2.1;;
76548;SDS011;65391;52.068;4.542;2023-12-28T02:18:52;10.4;;;2.1;;
76548;SDS011;65391;52.068;4.542;2023-12-28T02:21:17;10.4;;;2.1;;
76548;SDS011;65391;52.068;4.542;2023-12-28T02:23:46;10.4;;;2.1;;
76548;SDS011;65391;52.068;4.542;2023-12-28T02:26:07;6.1;;;1.7;;
76548;SDS011;65391;52.068;4.542;2023-12-28T02:28:32;6.1;;;1.7;;
76548;SDS011;65391;52.068;4.542;2023-12-28T02:30:57;6.1;;;1.7;;
76548;SDS011;65391;52.068;4.542;2023-12-28T02:33:24;6.1;;;1.7;;
76548;SDS011;65391;52.068;4.542;2023-12-28T02:35:50;6.4;;;1.5;;
76548;SDS011;65391;52.068;4.542;2023-12-28T02:38:13;6.4;;;1.5;;
76548;SDS011;65391;52.068;4.542;2023-12-28T02:40:38;6.4;;;1.5;;
76548;SDS011;65391;52.068;4.542;2023-12-28T02:43:03;6.4;;;1.5;;
76548;SDS011;65391;52.068;4.542;2023-12-28T02:45:27;5.7;;;1.5;;
76548;SDS011;65391;52.068;4.542;2023-12-28T02:47:52;5.7;;;1.5;;
76548;SDS011;65391;52.068;4.542;2023-12-28T02:50:17;5.7;;;1.5;;
76548;SDS011;65391;52.068;4.542;2023-12-28T02:52:43;5.7;;;1.5;;
76548;SDS011;65391;52.068;4.542;2023-12-28T02:55:07;12.3;;;1.6;;
76548;SDS011;65391;52.068;4.542;2023-12-28T02:57:32;12.3;;;1.6;;
76548;SDS011;65391;52.068;4.542;2023-12-28T02:59:57;12.3;;;1.6;;
76548;SDS011;65391;52.068;4.542;2023-12-28T03:02:22;12.3;;;1.6;;
76548;SDS011;65391;52.068;4.542;2023-12-28T03:04:47;12.3;;;1.6;;
76548;SDS011;65391;52.068;4.542;2023-12-28T03:07:12;5;;;1.9;;
76548;SDS011;65391;52.068;4.542;2023-12-28T03:09:37;5;;;1.9;;
76548;SDS011;65391;52.068;4.542;2023-12-28T03:12:03;5;;;1.9;;
76548;SDS011;65391;52.068;4.542;2023-12-28T03:14:27;5;;;1.9;;
76548;SDS011;65391;52.068;4.542;2023-12-28T03:16:52;12.6;;;2.8;;
76548;SDS011;65391;52.068;4.542;2023-12-28T03:19:17;12.6;;;2.8;;
76548;SDS011;65391;52.068;4.542;2023-12-28T03:21:42;12.6;;;2.8;;
76548;SDS011;65391;52.068;4.542;2023-12-28T03:24:07;12.6;;;2.8;;
76548;SDS011;65391;52.068;4.542;2023-12-28T03:26:32;7.6;;;1.6;;
76548;SDS011;65391;52.068;4.542;2023-12-28T03:28:58;7.6;;;1.6;;
76548;SDS011;65391;52.068;4.542;2023-12-28T03:31:22;7.6;;;1.6;;
76548;SDS011;65391;52.068;4.542;2023-12-28T03:33:47;7.6;;;1.6;;
76548;SDS011;65391;52.068;4.542;2023-12-28T03:36:17;5.4;;;2.1;;
76548;SDS011;65391;52.068;4.542;2023-12-28T03:38:38;5.4;;;2.1;;
76548;SDS011;65391;52.068;4.542;2023-12-28T03:41:02;5.4;;;2.1;;
76548;SDS011;65391;52.068;4.542;2023-12-28T03:43:27;5.4;;;2.1;;
76548;SDS011;65391;52.068;4.542;2023-12-28T03:45:52;9.9;;;1.5;;
76548;SDS011;65391;52.068;4.542;2023-12-28T03:48:17;9.9;;;1.5;;
76548;SDS011;65391;52.068;4.542;2023-12-28T03:50:42;9.9;;;1.5;;
76548;SDS011;65391;52.068;4.542;2023-12-28T03:53:07;9.9;;;1.5;;
76548;SDS011;65391;52.068;4.542;2023-12-28T03:55:32;7.4;;;1.5;;
76548;SDS011;65391;52.068;4.542;2023-12-28T03:57:57;7.4;;;1.5;;
76548;SDS011;65391;52.068;4.542;2023-12-28T04:00:22;7.4;;;1.5;;
76548;SDS011;65391;52.068;4.542;2023-12-28T04:02:47;7.4;;;1.5;;
76548;SDS011;65391;52.068;4.542;2023-12-28T04:05:13;7.6;;;1.6;;
76548;SDS011;65391;52.068;4.542;2023-12-28T04:07:37;7.6;;;1.6;;
76548;SDS011;65391;52.068;4.542;2023-12-28T04:10:03;7.6;;;1.6;;
76548;SDS011;65391;52.068;4.542;2023-12-28T04:12:27;7.6;;;1.6;;
76548;SDS011;65391;52.068;4.542;2023-12-28T04:14:52;7.6;;;1.6;;
76548;SDS011;65391;52.068;4.542;2023-12-28T04:17:17;12.6;;;2.3;;
76548;SDS011;65391;52.068;4.542;2023-12-28T04:19:42;12.6;;;2.3;;
76548;SDS011;65391;52.068;4.542;2023-12-28T04:22:07;12.6;;;2.3;;
76548;SDS011;65391;52.068;4.542;2023-12-28T04:24:32;12.6;;;2.3;;
76548;SDS011;65391;52.068;4.542;2023-12-28T04:26:57;11.2;;;2.7;;
76548;SDS011;65391;52.068;4.542;2023-12-28T04:29:22;11.2;;;2.7;;
76548;SDS011;65391;52.068;4.542;2023-12-28T04:31:48;11.2;;;2.7;;
76548;SDS011;65391;52.068;4.542;2023-12-28T04:34:12;11.2;;;2.7;;
76548;SDS011;65391;52.068;4.542;2023-12-28T04:36:41;10.7;;;2.1;;
76548;SDS011;65391;52.068;4.542;2023-12-28T04:39:02;10.7;;;2.1;;
76548;SDS011;65391;52.068;4.542;2023-12-28T04:41:27;10.7;;;2.1;;
76548;SDS011;65391;52.068;4.542;2023-12-28T04:43:52;10.7;;;2.1;;
76548;SDS011;65391;52.068;4.542;2023-12-28T04:46:17;7.6;;;1.6;;
76548;SDS011;65391;52.068;4.542;2023-12-28T04:48:42;7.6;;;1.6;;
76548;SDS011;65391;52.068;4.542;2023-12-28T04:51:07;7.6;;;1.6;;
76548;SDS011;65391;52.068;4.542;2023-12-28T04:53:32;7.6;;;1.6;;
76548;SDS011;65391;52.068;4.542;2023-12-28T04:55:57;13.4;;;1.9;;
76548;SDS011;65391;52.068;4.542;2023-12-28T04:58:22;13.4;;;1.9;;
76548;SDS011;65391;52.068;4.542;2023-12-28T05:00:47;13.4;;;1.9;;
76548;SDS011;65391;52.068;4.542;2023-12-28T05:03:12;13.4;;;1.9;;
76548;SDS011;65391;52.068;4.542;2023-12-28T05:05:37;12.4;;;2.5;;
76548;SDS011;65391;52.068;4.542;2023-12-28T05:08:03;12.4;;;2.5;;
76548;SDS011;65391;52.068;4.542;2023-12-28T05:10:27;12.4;;;2.5;;
76548;SDS011;65391;52.068;4.542;2023-12-28T05:12:52;12.4;;;2.5;;
76548;SDS011;65391;52.068;4.542;2023-12-28T05:15:17;10.9;;;2.4;;
76548;SDS011;65391;52.068;4.542;2023-12-28T05:17:42;10.9;;;2.4;;
76548;SDS011;65391;52.068;4.542;2023-12-28T05:20:08;10.9;;;2.4;;
76548;SDS011;65391;52.068;4.542;2023-12-28T05:22:32;10.9;;;2.4;;
76548;SDS011;65391;52.068;4.542;2023-12-28T05:24:57;10.9;;;2.4;;
76548;SDS011;65391;52.068;4.542;2023-12-28T05:27:22;10.9;;;1.6;;
76548;SDS011;65391;52.068;4.542;2023-12-28T05:29:47;10.9;;;1.6;;
76548;SDS011;65391;52.068;4.542;2023-12-28T05:32:12;10.9;;;1.6;;
76548;SDS011;65391;52.068;4.542;2023-12-28T05:34:37;10.9;;;1.6;;
76548;SDS011;65391;52.068;4.542;2023-12-28T05:37:02;15.8;;;3.4;;
76548;SDS011;65391;52.068;4.542;2023-12-28T05:39:27;15.8;;;3.4;;
76548;SDS011;65391;52.068;4.542;2023-12-28T05:41:52;15.8;;;3.4;;
76548;SDS011;65391;52.068;4.542;2023-12-28T05:44:18;15.8;;;3.4;;
76548;SDS011;65391;52.068;4.542;2023-12-28T05:46:43;11;;;2.2;;
76548;SDS011;65391;52.068;4.542;2023-12-28T05:49:07;11;;;2.2;;
76548;SDS011;65391;52.068;4.542;2023-12-28T05:51:37;11;;;2.2;;
76548;SDS011;65391;52.068;4.542;2023-12-28T05:53:57;11;;;2.2;;
76548;SDS011;65391;52.068;4.542;2023-12-28T05:56:22;9.1;;;1.6;;
76548;SDS011;65391;52.068;4.542;2023-12-28T05:58:47;9.1;;;1.6;;
76548;SDS011;65391;52.068;4.542;2023-12-28T06:01:12;9.1;;;1.6;;
76548;SDS011;65391;52.068;4.542;2023-12-28T06:03:37;9.1;;;1.6;;
76548;SDS011;65391;52.068;4.542;2023-12-28T06:06:03;15.5;;;3.1;;
76548;SDS011;65391;52.068;4.542;2023-12-28T06:08:27;15.5;;;3.1;;
76548;SDS011;65391;52.068;4.542;2023-12-28T06:10:53;15.5;;;3.1;;
76548;SDS011;65391;52.068;4.542;2023-12-28T06:13:17;15.5;;;3.1;;
76548;SDS011;65391;52.068;4.542;2023-12-28T06:15:42;14.8;;;2.5;;
76548;SDS011;65391;52.068;4.542;2023-12-28T06:18:07;14.8;;;2.5;;
76548;SDS011;65391;52.068;4.542;2023-12-28T06:20:32;14.8;;;2.5;;
76548;SDS011;65391;52.068;4.542;2023-12-28T06:22:58;14.8;;;2.5;;
76548;SDS011;65391;52.068;4.542;2023-12-28T06:25:23;12.2;;;1.8;;
76548;SDS011;65391;52.068;4.542;2023-12-28T06:27:48;12.2;;;1.8;;
76548;SDS011;65391;52.068;4.542;2023-12-28T06:30:13;12.2;;;1.8;;
76548;SDS011;65391;52.068;4.542;2023-12-28T06:32:37;12.2;;;1.8;;
76548;SDS011;65391;52.068;4.542;2023-12-28T06:35:03;12.2;;;1.8;;
76548;SDS011;65391;52.068;4.542;2023-12-28T06:37:27;15.9;;;3;;
76548;SDS011;65391;52.068;4.542;2023-12-28T06:39:53;15.9;;;3;;
76548;SDS011;65391;52.068;4.542;2023-12-28T06:42:18;15.9;;;3;;
76548;SDS011;65391;52.068;4.542;2023-12-28T06:44:42;15.9;;;3;;
76548;SDS011;65391;52.068;4.542;2023-12-28T06:47:07;11.8;;;2.6;;
76548;SDS011;65391;52.068;4.542;2023-12-28T06:49:33;11.8;;;2.6;;
76548;SDS011;65391;52.068;4.542;2023-12-28T06:51:58;11.8;;;2.6;;
76548;SDS011;65391;52.068;4.542;2023-12-28T06:54:23;11.8;;;2.6;;
76548;SDS011;65391;52.068;4.542;2023-12-28T06:56:48;13.4;;;2.4;;
76548;SDS011;65391;52.068;4.542;2023-12-28T06:59:13;13.4;;;2.4;;
76548;SDS011;65391;52.068;4.542;2023-12-28T07:01:38;13.4;;;2.4;;
76548;SDS011;65391;52.068;4.542;2023-12-28T07:04:03;13.4;;;2.4;;
76548;SDS011;65391;52.068;4.542;2023-12-28T07:06:28;13.1;;;2.8;;
76548;SDS011;65391;52.068;4.542;2023-12-28T07:08:53;13.1;;;2.8;;
76548;SDS011;65391;52.068;4.542;2023-12-28T07:11:18;13.1;;;2.8;;
76548;SDS011;65391;52.068;4.542;2023-12-28T07:13:43;13.1;;;2.8;;
76548;SDS011;65391;52.068;4.542;2023-12-28T07:16:08;17.1;;;4.1;;
76548;SDS011;65391;52.068;4.542;2023-12-28T07:18:33;17.1;;;4.1;;
76548;SDS011;65391;52.068;4.542;2023-12-28T07:20:58;17.1;;;4.1;;
76548;SDS011;65391;52.068;4.542;2023-12-28T07:23:23;17.1;;;4.1;;
76548;SDS011;65391;52.068;4.542;2023-12-28T07:25:48;15.6;;;2.4;;
76548;SDS011;65391;52.068;4.542;2023-12-28T07:28:13;15.6;;;2.4;;
76548;SDS011;65391;52.068;4.542;2023-12-28T07:30:38;15.6;;;2.4;;
76548;SDS011;65391;52.068;4.542;2023-12-28T07:33:03;15.6;;;2.4;;
76548;SDS011;65391;52.068;4.542;2023-12-28T07:35:28;12.3;;;2.3;;
76548;SDS011;65391;52.068;4.542;2023-12-28T07:37:53;12.3;;;2.3;;
76548;SDS011;65391;52.068;4.542;2023-12-28T07:40:18;12.3;;;2.3;;
76548;SDS011;65391;52.068;4.542;2023-12-28T07:42:43;12.3;;;2.3;;
76548;SDS011;65391;52.068;4.542;2023-12-28T07:45:08;12.3;;;2.3;;
76548;SDS011;65391;52.068;4.542;2023-12-28T07:47:33;15.4;;;3.1;;
76548;SDS011;65391;52.068;4.542;2023-12-28T07:49:58;15.4;;;3.1;;
76548;SDS011;65391;52.068;4.542;2023-12-28T07:52:23;15.4;;;3.1;;
76548;SDS011;65391;52.068;4.542;2023-12-28T07:54:48;15.4;;;3.1;;
76548;SDS011;65391;52.068;4.542;2023-12-28T07:57:13;16.6;;;3.5;;
76548;SDS011;65391;52.068;4.542;2023-12-28T07:59:38;16.6;;;3.5;;
76548;SDS011;65391;52.068;4.542;2023-12-28T08:02:03;16.6;;;3.5;;
76548;SDS011;65391;52.068;4.542;2023-12-28T08:04:28;16.6;;;3.5;;
76548;SDS011;65391;52.068;4.542;2023-12-28T08:06:53;14.2;;;2.9;;
76548;SDS011;65391;52.068;4.542;2023-12-28T08:09:18;14.2;;;2.9;;
76548;SDS011;65391;52.068;4.542;2023-12-28T08:11:43;14.2;;;2.9;;
76548;SDS011;65391;52.068;4.542;2023-12-28T08:14:08;14.2;;;2.9;;
76548;SDS011;65391;52.068;4.542;2023-12-28T08:16:33;13.1;;;2.4;;
76548;SDS011;65391;52.068;4.542;2023-12-28T08:18:58;13.1;;;2.4;;
76548;SDS011;65391;52.068;4.542;2023-12-28T08:21:23;13.1;;;2.4;;
76548;SDS011;65391;52.068;4.542;2023-12-28T08:23:48;13.1;;;2.4;;
76548;SDS011;65391;52.068;4.542;2023-12-28T08:26:13;15.9;;;2.9;;
76548;SDS011;65391;52.068;4.542;2023-12-28T08:28:38;15.9;;;2.9;;
76548;SDS011;65391;52.068;4.542;2023-12-28T08:31:03;15.9;;;2.9;;
76548;SDS011;65391;52.068;4.542;2023-12-28T08:33:28;15.9;;;2.9;;
76548;SDS011;65391;52.068;4.542;2023-12-28T08:35:53;14.6;;;2.6;;
76548;SDS011;65391;52.068;4.542;2023-12-28T08:38:18;14.6;;;2.6;;
76548;SDS011;65391;52.068;4.542;2023-12-28T08:40:43;14.6;;;2.6;;
76548;SDS011;65391;52.068;4.542;2023-12-28T08:43:08;14.6;;;2.6;;
76548;SDS011;65391;52.068;4.542;2023-12-28T08:45:33;16;;;3.2;;
76548;SDS011;65391;52.068;4.542;2023-12-28T08:47:58;16;;;3.2;;
76548;SDS011;65391;52.068;4.542;2023-12-28T08:50:23;16;;;3.2;;
76548;SDS011;65391;52.068;4.542;2023-12-28T08:52:48;16;;;3.2;;
76548;SDS011;65391;52.068;4.542;2023-12-28T08:55:13;16;;;3.2;;
76548;SDS011;65391;52.068;4.542;2023-12-28T08:57:38;16.3;;;3;;
76548;SDS011;65391;52.068;4.542;2023-12-28T09:00:04;16.3;;;3;;
76548;SDS011;65391;52.068;4.542;2023-12-28T09:02:28;16.3;;;3;;
76548;SDS011;65391;52.068;4.542;2023-12-28T09:04:53;16.3;;;3;;
76548;SDS011;65391;52.068;4.542;2023-12-28T09:07:18;13.6;;;1.9;;
76548;SDS011;65391;52.068;4.542;2023-12-28T09:09:43;13.6;;;1.9;;
76548;SDS011;65391;52.068;4.542;2023-12-28T09:12:08;13.6;;;1.9;;
76548;SDS011;65391;52.068;4.542;2023-12-28T09:14:33;13.6;;;1.9;;
76548;SDS011;65391;52.068;4.542;2023-12-28T09:16:58;11.1;;;2.5;;
76548;SDS011;65391;52.068;4.542;2023-12-28T09:19:23;11.1;;;2.5;;
76548;SDS011;65391;52.068;4.542;2023-12-28T09:21:48;11.1;;;2.5;;
76548;SDS011;65391;52.068;4.542;2023-12-28T09:24:13;11.1;;;2.5;;
76548;SDS011;65391;52.068;4.542;2023-12-28T09:26:38;15.5;;;3.1;;
76548;SDS011;65391;52.068;4.542;2023-12-28T09:29:03;15.5;;;3.1;;
76548;SDS011;65391;52.068;4.542;2023-12-28T09:31:28;15.5;;;3.1;;
76548;SDS011;65391;52.068;4.542;2023-12-28T09:33:53;15.5;;;3.1;;
76548;SDS011;65391;52.068;4.542;2023-12-28T09:36:18;14.2;;;2.7;;
76548;SDS011;65391;52.068;4.542;2023-12-28T09:38:43;14.2;;;2.7;;
76548;SDS011;65391;52.068;4.542;2023-12-28T09:41:11;14.2;;;2.7;;
76548;SDS011;65391;52.068;4.542;2023-12-28T09:43:35;14.2;;;2.7;;
76548;SDS011;65391;52.068;4.542;2023-12-28T09:45:58;13.6;;;3;;
76548;SDS011;65391;52.068;4.542;2023-12-28T09:48:23;13.6;;;3;;
76548;SDS011;65391;52.068;4.542;2023-12-28T09:50:49;13.6;;;3;;
76548;SDS011;65391;52.068;4.542;2023-12-28T09:53:13;13.6;;;3;;
76548;SDS011;65391;52.068;4.542;2023-12-28T09:55:38;13.6;;;3;;
76548;SDS011;65391;52.068;4.542;2023-12-28T09:58:03;9.6;;;1.6;;
76548;SDS011;65391;52.068;4.542;2023-12-28T10:00:28;9.6;;;1.6;;
76548;SDS011;65391;52.068;4.542;2023-12-28T10:02:53;9.6;;;1.6;;
76548;SDS011;65391;52.068;4.542;2023-12-28T10:05:18;9.6;;;1.6;;
76548;SDS011;65391;52.068;4.542;2023-12-28T10:07:43;14.2;;;2.8;;
76548;SDS011;65391;52.068;4.542;2023-12-28T10:10:08;14.2;;;2.8;;
76548;SDS011;65391;52.068;4.542;2023-12-28T10:12:33;14.2;;;2.8;;
76548;SDS011;65391;52.068;4.542;2023-12-28T10:14:58;14.2;;;2.8;;
76548;SDS011;65391;52.068;4.542;2023-12-28T10:17:23;15.5;;;3.5;;
76548;SDS011;65391;52.068;4.542;2023-12-28T10:19:48;15.5;;;3.5;;
76548;SDS011;65391;52.068;4.542;2023-12-28T10:22:13;15.5;;;3.5;;
76548;SDS011;65391;52.068;4.542;2023-12-28T10:24:40;15.5;;;3.5;;
76548;SDS011;65391;52.068;4.542;2023-12-28T10:27:03;17.7;;;4.8;;
76548;SDS011;65391;52.068;4.542;2023-12-28T10:29:28;17.7;;;4.8;;
76548;SDS011;65391;52.068;4.542;2023-12-28T10:31:53;17.7;;;4.8;;
76548;SDS011;65391;52.068;4.542;2023-12-28T10:34:18;17.7;;;4.8;;
76548;SDS011;65391;52.068;4.542;2023-12-28T10:36:43;15.7;;;2.9;;
76548;SDS011;65391;52.068;4.542;2023-12-28T10:39:08;15.7;;;2.9;;
76548;SDS011;65391;52.068;4.542;2023-12-28T10:41:33;15.7;;;2.9;;
76548;SDS011;65391;52.068;4.542;2023-12-28T10:44:02;15.7;;;2.9;;
76548;SDS011;65391;52.068;4.542;2023-12-28T10:46:25;15;;;2.9;;
76548;SDS011;65391;52.068;4.542;2023-12-28T10:48:48;15;;;2.9;;
76548;SDS011;65391;52.068;4.542;2023-12-28T10:51:13;15;;;2.9;;
76548;SDS011;65391;52.068;4.542;2023-12-28T10:53:40;15;;;2.9;;
76548;SDS011;65391;52.068;4.542;2023-12-28T10:56:10;17.2;;;4;;
76548;SDS011;65391;52.068;4.542;2023-12-28T10:58:32;17.2;;;4;;
76548;SDS011;65391;52.068;4.542;2023-12-28T11:00:54;17.2;;;4;;
76548;SDS011;65391;52.068;4.542;2023-12-28T11:03:18;17.2;;;4;;
76548;SDS011;65391;52.068;4.542;2023-12-28T11:05:43;17.2;;;4;;
76548;SDS011;65391;52.068;4.542;2023-12-28T11:08:08;13.9;;;2.8;;
76548;SDS011;65391;52.068;4.542;2023-12-28T11:10:33;13.9;;;2.8;;
76548;SDS011;65391;52.068;4.542;2023-12-28T11:12:58;13.9;;;2.8;;
76548;SDS011;65391;52.068;4.542;2023-12-28T11:15:23;13.9;;;2.8;;
76548;SDS011;65391;52.068;4.542;2023-12-28T11:17:48;10.8;;;2.9;;
76548;SDS011;65391;52.068;4.542;2023-12-28T11:20:13;10.8;;;2.9;;
76548;SDS011;65391;52.068;4.542;2023-12-28T11:22:38;10.8;;;2.9;;
76548;SDS011;65391;52.068;4.542;2023-12-28T11:25:03;10.8;;;2.9;;
76548;SDS011;65391;52.068;4.542;2023-12-28T11:27:33;15.2;;;2.6;;
76548;SDS011;65391;52.068;4.542;2023-12-28T11:29:53;15.2;;;2.6;;
76548;SDS011;65391;52.068;4.542;2023-12-28T11:32:19;15.2;;;2.6;;
76548;SDS011;65391;52.068;4.542;2023-12-28T11:34:43;15.2;;;2.6;;
76548;SDS011;65391;52.068;4.542;2023-12-28T11:37:12;16.4;;;3.1;;
76548;SDS011;65391;52.068;4.542;2023-12-28T11:39:34;16.4;;;3.1;;
76548;SDS011;65391;52.068;4.542;2023-12-28T11:41:59;16.4;;;3.1;;
76548;SDS011;65391;52.068;4.542;2023-12-28T11:44:25;16.4;;;3.1;;
76548;SDS011;65391;52.068;4.542;2023-12-28T11:46:48;18.9;;;6.2;;
76548;SDS011;65391;52.068;4.542;2023-12-28T11:49:13;18.9;;;6.2;;
76548;SDS011;65391;52.068;4.542;2023-12-28T11:51:38;18.9;;;6.2;;
76548;SDS011;65391;52.068;4.542;2023-12-28T11:54:03;18.9;;;6.2;;
76548;SDS011;65391;52.068;4.542;2023-12-28T11:56:28;17.5;;;4.3;;
76548;SDS011;65391;52.068;4.542;2023-12-28T11:58:53;17.5;;;4.3;;
76548;SDS011;65391;52.068;4.542;2023-12-28T12:01:18;17.5;;;4.3;;
76548;SDS011;65391;52.068;4.542;2023-12-28T12:03:43;17.5;;;4.3;;
76548;SDS011;65391;52.068;4.542;2023-12-28T12:06:08;12.5;;;3.7;;
76548;SDS011;65391;52.068;4.542;2023-12-28T12:08:33;12.5;;;3.7;;
76548;SDS011;65391;52.068;4.542;2023-12-28T12:11:01;12.5;;;3.7;;
76548;SDS011;65391;52.068;4.542;2023-12-28T12:13:23;12.5;;;3.7;;
76548;SDS011;65391;52.068;4.542;2023-12-28T12:15:50;12.5;;;3.7;;
76548;SDS011;65391;52.068;4.542;2023-12-28T12:18:13;15.1;;;5.1;;
76548;SDS011;65391;52.068;4.542;2023-12-28T12:20:38;15.1;;;5.1;;
76548;SDS011;65391;52.068;4.542;2023-12-28T12:23:03;15.1;;;5.1;;
76548;SDS011;65391;52.068;4.542;2023-12-28T12:25:28;15.1;;;5.1;;
76548;SDS011;65391;52.068;4.542;2023-12-28T12:27:53;13.7;;;2.7;;
76548;SDS011;65391;52.068;4.542;2023-12-28T12:30:18;13.7;;;2.7;;
76548;SDS011;65391;52.068;4.542;2023-12-28T12:32:43;13.7;;;2.7;;
76548;SDS011;65391;52.068;4.542;2023-12-28T12:35:09;13.7;;;2.7;;
76548;SDS011;65391;52.068;4.542;2023-12-28T12:37:33;16.3;;;2.9;;
76548;SDS011;65391;52.068;4.542;2023-12-28T12:39:58;16.3;;;2.9;;
76548;SDS011;65391;52.068;4.542;2023-12-28T12:42:23;16.3;;;2.9;;
76548;SDS011;65391;52.068;4.542;2023-12-28T12:44:48;16.3;;;2.9;;
76548;SDS011;65391;52.068;4.542;2023-12-28T12:47:13;16.5;;;3.3;;
76548;SDS011;65391;52.068;4.542;2023-12-28T12:49:38;16.5;;;3.3;;
76548;SDS011;65391;52.068;4.542;2023-12-28T12:52:03;16.5;;;3.3;;
76548;SDS011;65391;52.068;4.542;2023-12-28T12:54:28;16.5;;;3.3;;
76548;SDS011;65391;52.068;4.542;2023-12-28T12:56:53;13.2;;;2.4;;
76548;SDS011;65391;52.068;4.542;2023-12-28T12:59:18;13.2;;;2.4;;
76548;SDS011;65391;52.068;4.542;2023-12-28T13:01:43;13.2;;;2.4;;
76548;SDS011;65391;52.068;4.542;2023-12-28T13:04:08;13.2;;;2.4;;
76548;SDS011;65391;52.068;4.542;2023-12-28T13:06:33;15.3;;;2.8;;
76548;SDS011;65391;52.068;4.542;2023-12-28T13:08:58;15.3;;;2.8;;
76548;SDS011;65391;52.068;4.542;2023-12-28T13:11:23;15.3;;;2.8;;
76548;SDS011;65391;52.068;4.542;2023-12-28T13:13:48;15.3;;;2.8;;
76548;SDS011;65391;52.068;4.542;2023-12-28T13:16:13;16;;;3.3;;
76548;SDS011;65391;52.068;4.542;2023-12-28T13:18:38;16;;;3.3;;
76548;SDS011;65391;52.068;4.542;2023-12-28T13:21:03;16;;;3.3;;
76548;SDS011;65391;52.068;4.542;2023-12-28T13:23:30;16;;;3.3;;
76548;SDS011;65391;52.068;4.542;2023-12-28T13:25:53;16;;;3.3;;
76548;SDS011;65391;52.068;4.542;2023-12-28T13:28:18;13.9;;;2.9;;
76548;SDS011;65391;52.068;4.542;2023-12-28T13:30:43;13.9;;;2.9;;
76548;SDS011;65391;52.068;4.542;2023-12-28T13:33:08;13.9;;;2.9;;
76548;SDS011;65391;52.068;4.542;2023-12-28T13:35:33;13.9;;;2.9;;
76548;SDS011;65391;52.068;4.542;2023-12-28T13:37:58;15.6;;;3.6;;
76548;SDS011;65391;52.068;4.542;2023-12-28T13:40:23;15.6;;;3.6;;
76548;SDS011;65391;52.068;4.542;2023-12-28T13:42:48;15.6;;;3.6;;
76548;SDS011;65391;52.068;4.542;2023-12-28T13:45:13;15.6;;;3.6;;
76548;SDS011;65391;52.068;4.542;2023-12-28T13:47:38;14.1;;;2.7;;
76548;SDS011;65391;52.068;4.542;2023-12-28T13:50:04;14.1;;;2.7;;
76548;SDS011;65391;52.068;4.542;2023-12-28T13:52:28;14.1;;;2.7;;
76548;SDS011;65391;52.068;4.542;2023-12-28T13:54:53;14.1;;;2.7;;
76548;SDS011;65391;52.068;4.542;2023-12-28T13:57:18;12.6;;;2;;
76548;SDS011;65391;52.068;4.542;2023-12-28T13:59:43;12.6;;;2;;
76548;SDS011;65391;52.068;4.542;2023-12-28T14:02:08;12.6;;;2;;
76548;SDS011;65391;52.068;4.542;2023-12-28T14:04:33;12.6;;;2;;
76548;SDS011;65391;52.068;4.542;2023-12-28T14:06:58;14.8;;;3.5;;
76548;SDS011;65391;52.068;4.542;2023-12-28T14:09:23;14.8;;;3.5;;
76548;SDS011;65391;52.068;4.542;2023-12-28T14:11:51;14.8;;;3.5;;
76548;SDS011;65391;52.068;4.542;2023-12-28T14:14:13;14.8;;;3.5;;
76548;SDS011;65391;52.068;4.542;2023-12-28T14:16:38;16.6;;;4.5;;
76548;SDS011;65391;52.068;4.542;2023-12-28T14:19:03;16.6;;;4.5;;
76548;SDS011;65391;52.068;4.542;2023-12-28T14:21:28;16.6;;;4.5;;
76548;SDS011;65391;52.068;4.542;2023-12-28T14:23:53;16.6;;;4.5;;
76548;SDS011;65391;52.068;4.542;2023-12-28T14:26:18;13.1;;;2.7;;
76548;SDS011;65391;52.068;4.542;2023-12-28T14:28:43;13.1;;;2.7;;
76548;SDS011;65391;52.068;4.542;2023-12-28T14:31:09;13.1;;;2.7;;
76548;SDS011;65391;52.068;4.542;2023-12-28T14:33:33;13.1;;;2.7;;
76548;SDS011;65391;52.068;4.542;2023-12-28T14:35:58;13.1;;;2.7;;
76548;SDS011;65391;52.068;4.542;2023-12-28T14:38:23;13.7;;;2.7;;
76548;SDS011;65391;52.068;4.542;2023-12-28T14:40:48;13.7;;;2.7;;
76548;SDS011;65391;52.068;4.542;2023-12-28T14:43:13;13.7;;;2.7;;
76548;SDS011;65391;52.068;4.542;2023-12-28T14:45:38;13.7;;;2.7;;
76548;SDS011;65391;52.068;4.542;2023-12-28T14:48:04;12.6;;;3.5;;
76548;SDS011;65391;52.068;4.542;2023-12-28T14:50:28;12.6;;;3.5;;
76548;SDS011;65391;52.068;4.542;2023-12-28T14:52:53;12.6;;;3.5;;
76548;SDS011;65391;52.068;4.542;2023-12-28T14:55:18;12.6;;;3.5;;